sensor_id;sensor_type;location;lat;lon;timestamp;temperature;humidity
22469;DHT22;11401;50.792;4.352;2023-01-19T00:00:54;13.30;56.10
22469;DHT22;11401;50.792;4.352;2023-01-19T00:03:21;13.30;55.80
22469;DHT22;11401;50.792;4.352;2023-01-19T00:05:49;13.50;58.00
22469;DHT22;11401;50.792;4.352;2023-01-19T00:08:16;13.60;55.70
22469;DHT22;11401;50.792;4.352;2023-01-19T00:10:46;13.70;56.20
22469;DHT22;11401;50.792;4.352;2023-01-19T00:13:14;13.80;54.40
22469;DHT22;11401;50.792;4.352;2023-01-19T00:15:41;13.70;55.00
22469;DHT22;11401;50.792;4.352;2023-01-19T00:18:09;13.50;54.40
22469;DHT22;11401;50.792;4.352;2023-01-19T00:20:40;13.40;55.20
22469;DHT22;11401;50.792;4.352;2023-01-19T00:23:07;13.50;55.80
22469;DHT22;11401;50.792;4.352;2023-01-19T00:25:35;13.60;55.90
22469;DHT22;11401;50.792;4.352;2023-01-19T00:28:13;13.60;55.40
22469;DHT22;11401;50.792;4.352;2023-01-19T00:30:41;13.60;54.50
22469;DHT22;11401;50.792;4.352;2023-01-19T00:33:10;13.50;53.80
22469;DHT22;11401;50.792;4.352;2023-01-19T00:35:39;13.30;53.90
22469;DHT22;11401;50.792;4.352;2023-01-19T00:38:09;13.30;54.80
22469;DHT22;11401;50.792;4.352;2023-01-19T00:40:36;13.30;54.50
22469;DHT22;11401;50.792;4.352;2023-01-19T00:43:03;13.40;55.20
22469;DHT22;11401;50.792;4.352;2023-01-19T00:45:32;13.30;54.30
22469;DHT22;11401;50.792;4.352;2023-01-19T00:47:59;13.30;54.80
22469;DHT22;11401;50.792;4.352;2023-01-19T00:50:28;13.20;54.40
22469;DHT22;11401;50.792;4.352;2023-01-19T00:52:56;13.20;54.10
22469;DHT22;11401;50.792;4.352;2023-01-19T00:55:27;13.10;55.00
22469;DHT22;11401;50.792;4.352;2023-01-19T00:57:55;13.00;54.90
22469;DHT22;11401;50.792;4.352;2023-01-19T01:00:22;12.90;54.90
22469;DHT22;11401;50.792;4.352;2023-01-19T01:02:51;12.80;54.50
22469;DHT22;11401;50.792;4.352;2023-01-19T01:05:18;12.90;56.10
22469;DHT22;11401;50.792;4.352;2023-01-19T01:07:45;13.00;54.00
22469;DHT22;11401;50.792;4.352;2023-01-19T01:10:20;12.90;54.50
22469;DHT22;11401;50.792;4.352;2023-01-19T01:12:48;13.00;54.00
22469;DHT22;11401;50.792;4.352;2023-01-19T01:15:25;12.90;53.80
22469;DHT22;11401;50.792;4.352;2023-01-19T01:17:53;12.90;53.90
22469;DHT22;11401;50.792;4.352;2023-01-19T01:20:23;12.90;54.80
22469;DHT22;11401;50.792;4.352;2023-01-19T01:22:53;13.00;54.30
22469;DHT22;11401;50.792;4.352;2023-01-19T01:25:23;12.90;53.80
22469;DHT22;11401;50.792;4.352;2023-01-19T01:27:50;12.80;53.90
22469;DHT22;11401;50.792;4.352;2023-01-19T01:30:18;12.80;56.20
22469;DHT22;11401;50.792;4.352;2023-01-19T01:32:46;12.80;54.10
22469;DHT22;11401;50.792;4.352;2023-01-19T01:35:13;12.80;55.20
22469;DHT22;11401;50.792;4.352;2023-01-19T01:37:40;12.90;54.10
22469;DHT22;11401;50.792;4.352;2023-01-19T01:40:11;12.80;54.40
22469;DHT22;11401;50.792;4.352;2023-01-19T01:42:39;12.80;54.30
22469;DHT22;11401;50.792;4.352;2023-01-19T01:47:43;12.70;54.90
22469;DHT22;11401;50.792;4.352;2023-01-19T01:50:28;12.90;54.90
22469;DHT22;11401;50.792;4.352;2023-01-19T01:53:00;12.90;54.80
22469;DHT22;11401;50.792;4.352;2023-01-19T01:55:42;12.90;53.90
22469;DHT22;11401;50.792;4.352;2023-01-19T01:58:13;12.90;54.20
22469;DHT22;11401;50.792;4.352;2023-01-19T02:00:41;12.80;54.20
22469;DHT22;11401;50.792;4.352;2023-01-19T02:03:28;12.70;54.10
22469;DHT22;11401;50.792;4.352;2023-01-19T02:05:58;12.60;55.10
22469;DHT22;11401;50.792;4.352;2023-01-19T02:11:13;12.70;55.50
22469;DHT22;11401;50.792;4.352;2023-01-19T02:13:58;12.80;55.50
22469;DHT22;11401;50.792;4.352;2023-01-19T02:16:25;12.70;54.10
22469;DHT22;11401;50.792;4.352;2023-01-19T02:18:52;13.00;55.60
22469;DHT22;11401;50.792;4.352;2023-01-19T02:21:47;13.10;54.90
22469;DHT22;11401;50.792;4.352;2023-01-19T02:24:18;13.10;53.80
22469;DHT22;11401;50.792;4.352;2023-01-19T02:26:47;13.00;53.90
22469;DHT22;11401;50.792;4.352;2023-01-19T02:29:19;13.00;54.50
22469;DHT22;11401;50.792;4.352;2023-01-19T02:31:47;12.80;53.10
22469;DHT22;11401;50.792;4.352;2023-01-19T02:34:17;13.00;54.90
22469;DHT22;11401;50.792;4.352;2023-01-19T02:37:07;13.00;53.60
22469;DHT22;11401;50.792;4.352;2023-01-19T02:39:38;12.80;53.70
22469;DHT22;11401;50.792;4.352;2023-01-19T02:42:12;12.60;54.10
22469;DHT22;11401;50.792;4.352;2023-01-19T02:44:43;12.60;54.70
22469;DHT22;11401;50.792;4.352;2023-01-19T02:47:11;12.60;56.30
22469;DHT22;11401;50.792;4.352;2023-01-19T02:49:38;12.60;54.20
22469;DHT22;11401;50.792;4.352;2023-01-19T02:52:09;12.70;54.90
22469;DHT22;11401;50.792;4.352;2023-01-19T03:00:24;12.50;54.90
22469;DHT22;11401;50.792;4.352;2023-01-19T03:11:28;12.80;53.70
22469;DHT22;11401;50.792;4.352;2023-01-19T03:14:04;12.70;54.40
22469;DHT22;11401;50.792;4.352;2023-01-19T03:16:44;12.70;54.00
22469;DHT22;11401;50.792;4.352;2023-01-19T03:19:24;12.60;53.80
22469;DHT22;11401;50.792;4.352;2023-01-19T03:22:26;12.50;54.70
22469;DHT22;11401;50.792;4.352;2023-01-19T03:24:58;12.50;55.00
22469;DHT22;11401;50.792;4.352;2023-01-19T03:27:35;12.40;54.80
22469;DHT22;11401;50.792;4.352;2023-01-19T03:30:13;12.50;56.00
22469;DHT22;11401;50.792;4.352;2023-01-19T03:32:46;12.50;55.20
22469;DHT22;11401;50.792;4.352;2023-01-19T03:35:17;12.60;54.60
22469;DHT22;11401;50.792;4.352;2023-01-19T03:37:47;12.60;54.30
22469;DHT22;11401;50.792;4.352;2023-01-19T03:40:16;12.80;55.60
22469;DHT22;11401;50.792;4.352;2023-01-19T03:42:44;12.90;53.70
22469;DHT22;11401;50.792;4.352;2023-01-19T03:45:12;12.80;53.80
22469;DHT22;11401;50.792;4.352;2023-01-19T03:47:40;12.90;54.30
22469;DHT22;11401;50.792;4.352;2023-01-19T03:50:12;12.90;54.00
22469;DHT22;11401;50.792;4.352;2023-01-19T03:52:40;12.90;53.90
22469;DHT22;11401;50.792;4.352;2023-01-19T03:55:08;12.80;54.00
22469;DHT22;11401;50.792;4.352;2023-01-19T03:57:35;12.90;54.70
22469;DHT22;11401;50.792;4.352;2023-01-19T04:00:03;13.00;53.70
22469;DHT22;11401;50.792;4.352;2023-01-19T04:02:37;12.90;53.70
22469;DHT22;11401;50.792;4.352;2023-01-19T04:05:05;12.70;53.90
22469;DHT22;11401;50.792;4.352;2023-01-19T04:07:32;12.70;54.40
22469;DHT22;11401;50.792;4.352;2023-01-19T04:09:59;12.50;54.40
22469;DHT22;11401;50.792;4.352;2023-01-19T04:12:26;12.60;55.50
22469;DHT22;11401;50.792;4.352;2023-01-19T04:14:53;12.70;54.50
22469;DHT22;11401;50.792;4.352;2023-01-19T04:17:20;12.80;55.20
22469;DHT22;11401;50.792;4.352;2023-01-19T04:19:47;12.80;53.70
22469;DHT22;11401;50.792;4.352;2023-01-19T04:22:14;12.80;53.90
22469;DHT22;11401;50.792;4.352;2023-01-19T04:24:41;12.80;54.30
22469;DHT22;11401;50.792;4.352;2023-01-19T04:27:08;12.90;54.10
22469;DHT22;11401;50.792;4.352;2023-01-19T04:29:35;13.00;53.90
22469;DHT22;11401;50.792;4.352;2023-01-19T04:32:01;12.90;53.70
22469;DHT22;11401;50.792;4.352;2023-01-19T04:34:28;12.90;53.90
22469;DHT22;11401;50.792;4.352;2023-01-19T04:36:55;12.90;53.30
22469;DHT22;11401;50.792;4.352;2023-01-19T04:39:22;12.80;54.70
22469;DHT22;11401;50.792;4.352;2023-01-19T04:41:49;12.90;53.90
22469;DHT22;11401;50.792;4.352;2023-01-19T04:44:17;12.80;53.50
22469;DHT22;11401;50.792;4.352;2023-01-19T04:46:44;12.70;53.70
22469;DHT22;11401;50.792;4.352;2023-01-19T04:49:12;12.70;54.00
22469;DHT22;11401;50.792;4.352;2023-01-19T04:51:39;12.60;54.50
22469;DHT22;11401;50.792;4.352;2023-01-19T04:54:06;12.40;54.30
22469;DHT22;11401;50.792;4.352;2023-01-19T04:56:35;12.30;55.00
22469;DHT22;11401;50.792;4.352;2023-01-19T04:59:02;12.30;56.60
22469;DHT22;11401;50.792;4.352;2023-01-19T05:01:29;12.40;55.20
22469;DHT22;11401;50.792;4.352;2023-01-19T05:04:00;12.40;54.60
22469;DHT22;11401;50.792;4.352;2023-01-19T05:06:29;12.60;55.40
22469;DHT22;11401;50.792;4.352;2023-01-19T05:08:56;12.60;54.70
22469;DHT22;11401;50.792;4.352;2023-01-19T05:11:23;12.60;54.20
22469;DHT22;11401;50.792;4.352;2023-01-19T05:13:50;12.50;54.70
22469;DHT22;11401;50.792;4.352;2023-01-19T05:16:17;12.60;55.40
22469;DHT22;11401;50.792;4.352;2023-01-19T05:18:44;12.60;54.40
22469;DHT22;11401;50.792;4.352;2023-01-19T05:21:11;12.70;55.80
22469;DHT22;11401;50.792;4.352;2023-01-19T05:23:38;12.70;54.40
22469;DHT22;11401;50.792;4.352;2023-01-19T05:26:05;12.80;54.90
22469;DHT22;11401;50.792;4.352;2023-01-19T05:28:32;12.90;54.30
22469;DHT22;11401;50.792;4.352;2023-01-19T05:30:59;12.90;53.70
22469;DHT22;11401;50.792;4.352;2023-01-19T05:33:27;12.90;54.20
22469;DHT22;11401;50.792;4.352;2023-01-19T05:35:54;13.00;54.50
22469;DHT22;11401;50.792;4.352;2023-01-19T05:38:22;12.90;54.70
22469;DHT22;11401;50.792;4.352;2023-01-19T05:41:00;12.90;53.70
22469;DHT22;11401;50.792;4.352;2023-01-19T05:43:28;12.70;54.00
22469;DHT22;11401;50.792;4.352;2023-01-19T05:45:55;12.60;54.60
22469;DHT22;11401;50.792;4.352;2023-01-19T05:48:22;12.50;55.10
22469;DHT22;11401;50.792;4.352;2023-01-19T05:50:49;12.60;54.60
22469;DHT22;11401;50.792;4.352;2023-01-19T05:53:16;12.50;54.70
22469;DHT22;11401;50.792;4.352;2023-01-19T05:55:43;12.40;55.30
22469;DHT22;11401;50.792;4.352;2023-01-19T05:58:10;12.40;55.30
22469;DHT22;11401;50.792;4.352;2023-01-19T06:00:37;12.50;54.70
22469;DHT22;11401;50.792;4.352;2023-01-19T06:03:04;12.00;53.60
22469;DHT22;11401;50.792;4.352;2023-01-19T06:05:32;11.40;55.70
22469;DHT22;11401;50.792;4.352;2023-01-19T06:08:00;11.20;57.30
22469;DHT22;11401;50.792;4.352;2023-01-19T06:10:27;11.10;58.20
22469;DHT22;11401;50.792;4.352;2023-01-19T06:12:54;11.20;58.10
22469;DHT22;11401;50.792;4.352;2023-01-19T06:15:21;11.10;58.20
22469;DHT22;11401;50.792;4.352;2023-01-19T06:17:48;11.00;58.40
22469;DHT22;11401;50.792;4.352;2023-01-19T06:20:15;11.00;59.00
22469;DHT22;11401;50.792;4.352;2023-01-19T06:22:43;11.00;59.10
22469;DHT22;11401;50.792;4.352;2023-01-19T06:25:10;11.00;58.60
22469;DHT22;11401;50.792;4.352;2023-01-19T06:27:37;11.10;59.00
22469;DHT22;11401;50.792;4.352;2023-01-19T06:30:06;11.10;58.80
22469;DHT22;11401;50.792;4.352;2023-01-19T06:32:33;11.20;58.90
22469;DHT22;11401;50.792;4.352;2023-01-19T06:35:00;11.30;58.90
22469;DHT22;11401;50.792;4.352;2023-01-19T06:37:27;11.50;58.40
22469;DHT22;11401;50.792;4.352;2023-01-19T06:39:56;11.80;59.00
22469;DHT22;11401;50.792;4.352;2023-01-19T06:42:23;11.90;57.40
22469;DHT22;11401;50.792;4.352;2023-01-19T06:44:50;12.00;56.50
22469;DHT22;11401;50.792;4.352;2023-01-19T06:47:17;12.00;55.20
22469;DHT22;11401;50.792;4.352;2023-01-19T06:49:44;11.90;55.40
22469;DHT22;11401;50.792;4.352;2023-01-19T06:52:11;11.90;56.70
22469;DHT22;11401;50.792;4.352;2023-01-19T06:54:42;12.00;55.90
22469;DHT22;11401;50.792;4.352;2023-01-19T06:57:11;12.10;56.20
22469;DHT22;11401;50.792;4.352;2023-01-19T06:59:39;12.20;56.40
22469;DHT22;11401;50.792;4.352;2023-01-19T07:02:06;12.40;55.00
22469;DHT22;11401;50.792;4.352;2023-01-19T07:04:53;12.40;55.10
22469;DHT22;11401;50.792;4.352;2023-01-19T07:07:20;12.60;55.10
22469;DHT22;11401;50.792;4.352;2023-01-19T07:09:47;12.70;55.00
22469;DHT22;11401;50.792;4.352;2023-01-19T07:12:14;12.80;54.70
22469;DHT22;11401;50.792;4.352;2023-01-19T07:14:41;12.70;53.90
22469;DHT22;11401;50.792;4.352;2023-01-19T07:17:08;12.70;53.90
22469;DHT22;11401;50.792;4.352;2023-01-19T07:19:36;12.70;54.40
22469;DHT22;11401;50.792;4.352;2023-01-19T07:22:03;12.70;54.50
22469;DHT22;11401;50.792;4.352;2023-01-19T07:24:30;12.60;54.80
22469;DHT22;11401;50.792;4.352;2023-01-19T07:26:59;12.70;54.90
22469;DHT22;11401;50.792;4.352;2023-01-19T07:29:26;12.70;54.60
22469;DHT22;11401;50.792;4.352;2023-01-19T07:31:53;12.70;55.10
22469;DHT22;11401;50.792;4.352;2023-01-19T07:34:20;12.70;54.90
22469;DHT22;11401;50.792;4.352;2023-01-19T07:36:48;12.80;54.50
22469;DHT22;11401;50.792;4.352;2023-01-19T07:39:15;13.10;55.40
22469;DHT22;11401;50.792;4.352;2023-01-19T07:41:42;13.00;54.10
22469;DHT22;11401;50.792;4.352;2023-01-19T07:44:09;13.00;54.50
22469;DHT22;11401;50.792;4.352;2023-01-19T07:46:36;13.10;54.60
22469;DHT22;11401;50.792;4.352;2023-01-19T07:49:03;13.30;54.00
22469;DHT22;11401;50.792;4.352;2023-01-19T07:51:30;13.30;53.70
22469;DHT22;11401;50.792;4.352;2023-01-19T07:53:57;13.20;53.50
22469;DHT22;11401;50.792;4.352;2023-01-19T07:56:24;13.20;53.80
22469;DHT22;11401;50.792;4.352;2023-01-19T07:58:53;13.20;53.80
22469;DHT22;11401;50.792;4.352;2023-01-19T08:01:20;13.10;53.80
22469;DHT22;11401;50.792;4.352;2023-01-19T08:03:48;13.20;53.70
22469;DHT22;11401;50.792;4.352;2023-01-19T08:06:23;13.10;53.40
22469;DHT22;11401;50.792;4.352;2023-01-19T08:08:51;13.10;54.00
22469;DHT22;11401;50.792;4.352;2023-01-19T08:11:18;13.10;53.90
22469;DHT22;11401;50.792;4.352;2023-01-19T08:13:46;13.10;53.50
22469;DHT22;11401;50.792;4.352;2023-01-19T08:16:13;13.00;54.00
22469;DHT22;11401;50.792;4.352;2023-01-19T08:18:40;13.10;54.10
22469;DHT22;11401;50.792;4.352;2023-01-19T08:21:07;13.20;53.70
22469;DHT22;11401;50.792;4.352;2023-01-19T08:23:34;13.20;53.50
22469;DHT22;11401;50.792;4.352;2023-01-19T08:26:01;13.30;53.70
22469;DHT22;11401;50.792;4.352;2023-01-19T08:28:42;13.20;53.10
22469;DHT22;11401;50.792;4.352;2023-01-19T08:31:09;13.20;53.70
22469;DHT22;11401;50.792;4.352;2023-01-19T08:33:46;13.40;54.00
22469;DHT22;11401;50.792;4.352;2023-01-19T08:36:13;13.30;53.20
22469;DHT22;11401;50.792;4.352;2023-01-19T08:38:40;13.30;53.80
22469;DHT22;11401;50.792;4.352;2023-01-19T08:41:10;13.30;54.00
22469;DHT22;11401;50.792;4.352;2023-01-19T08:43:37;13.40;53.80
22469;DHT22;11401;50.792;4.352;2023-01-19T08:46:05;13.50;53.00
22469;DHT22;11401;50.792;4.352;2023-01-19T08:48:32;13.50;53.10
22469;DHT22;11401;50.792;4.352;2023-01-19T08:50:59;13.40;53.20
22469;DHT22;11401;50.792;4.352;2023-01-19T08:53:27;13.40;54.80
22469;DHT22;11401;50.792;4.352;2023-01-19T08:55:55;13.40;53.00
22469;DHT22;11401;50.792;4.352;2023-01-19T08:58:23;13.30;53.00
22469;DHT22;11401;50.792;4.352;2023-01-19T09:00:50;13.30;54.10
22469;DHT22;11401;50.792;4.352;2023-01-19T09:03:18;13.60;53.50
22469;DHT22;11401;50.792;4.352;2023-01-19T09:05:47;13.70;53.70
22469;DHT22;11401;50.792;4.352;2023-01-19T09:08:14;13.80;52.30
22469;DHT22;11401;50.792;4.352;2023-01-19T09:10:49;13.80;53.70
22469;DHT22;11401;50.792;4.352;2023-01-19T09:13:19;13.80;53.50
22469;DHT22;11401;50.792;4.352;2023-01-19T09:15:46;13.70;52.70
22469;DHT22;11401;50.792;4.352;2023-01-19T09:18:16;13.70;52.20
22469;DHT22;11401;50.792;4.352;2023-01-19T09:20:44;13.60;52.60
22469;DHT22;11401;50.792;4.352;2023-01-19T09:23:13;13.50;52.70
22469;DHT22;11401;50.792;4.352;2023-01-19T09:25:43;13.50;54.00
22469;DHT22;11401;50.792;4.352;2023-01-19T09:28:12;13.60;53.50
22469;DHT22;11401;50.792;4.352;2023-01-19T09:30:41;13.60;54.00
22469;DHT22;11401;50.792;4.352;2023-01-19T09:33:11;13.60;52.80
22469;DHT22;11401;50.792;4.352;2023-01-19T09:35:39;13.50;53.00
22469;DHT22;11401;50.792;4.352;2023-01-19T09:38:07;13.50;53.50
22469;DHT22;11401;50.792;4.352;2023-01-19T09:40:43;13.50;53.40
22469;DHT22;11401;50.792;4.352;2023-01-19T09:45:54;13.40;53.10
22469;DHT22;11401;50.792;4.352;2023-01-19T09:48:38;13.50;53.20
22469;DHT22;11401;50.792;4.352;2023-01-19T09:51:18;13.60;53.10
22469;DHT22;11401;50.792;4.352;2023-01-19T09:56:19;13.30;53.30
22469;DHT22;11401;50.792;4.352;2023-01-19T09:58:48;13.40;53.80
22469;DHT22;11401;50.792;4.352;2023-01-19T10:09:46;13.60;53.10
22469;DHT22;11401;50.792;4.352;2023-01-19T10:20:36;13.70;52.70
22469;DHT22;11401;50.792;4.352;2023-01-19T10:23:28;13.70;52.80
22469;DHT22;11401;50.792;4.352;2023-01-19T10:26:00;13.80;53.00
22469;DHT22;11401;50.792;4.352;2023-01-19T10:28:29;13.60;52.70
22469;DHT22;11401;50.792;4.352;2023-01-19T10:30:56;13.50;52.60
22469;DHT22;11401;50.792;4.352;2023-01-19T10:33:23;13.30;52.60
22469;DHT22;11401;50.792;4.352;2023-01-19T10:35:50;13.60;54.50
22469;DHT22;11401;50.792;4.352;2023-01-19T10:38:17;13.90;53.50
22469;DHT22;11401;50.792;4.352;2023-01-19T10:40:53;14.00;53.50
22469;DHT22;11401;50.792;4.352;2023-01-19T10:46:04;13.90;51.90
22469;DHT22;11401;50.792;4.352;2023-01-19T10:48:39;14.00;54.20
22469;DHT22;11401;50.792;4.352;2023-01-19T10:51:09;13.90;51.70
22469;DHT22;11401;50.792;4.352;2023-01-19T10:53:36;13.80;52.70
22469;DHT22;11401;50.792;4.352;2023-01-19T10:56:21;13.70;52.50
22469;DHT22;11401;50.792;4.352;2023-01-19T10:58:48;13.80;53.00
22469;DHT22;11401;50.792;4.352;2023-01-19T11:03:46;13.70;52.70
22469;DHT22;11401;50.792;4.352;2023-01-19T11:08:48;13.60;53.40
22469;DHT22;11401;50.792;4.352;2023-01-19T11:11:18;13.70;52.70
22469;DHT22;11401;50.792;4.352;2023-01-19T11:14:03;13.80;53.30
22469;DHT22;11401;50.792;4.352;2023-01-19T11:16:31;13.70;52.40
22469;DHT22;11401;50.792;4.352;2023-01-19T11:19:00;13.60;52.40
22469;DHT22;11401;50.792;4.352;2023-01-19T11:21:30;13.60;53.60
22469;DHT22;11401;50.792;4.352;2023-01-19T11:24:03;13.60;53.10
22469;DHT22;11401;50.792;4.352;2023-01-19T11:26:45;13.70;52.30
22469;DHT22;11401;50.792;4.352;2023-01-19T11:29:21;13.60;52.20
22469;DHT22;11401;50.792;4.352;2023-01-19T11:31:49;13.60;52.50
22469;DHT22;11401;50.792;4.352;2023-01-19T11:34:35;13.60;53.30
22469;DHT22;11401;50.792;4.352;2023-01-19T11:37:25;13.60;52.60
22469;DHT22;11401;50.792;4.352;2023-01-19T11:39:56;13.60;52.60
22469;DHT22;11401;50.792;4.352;2023-01-19T11:42:24;13.50;52.50
22469;DHT22;11401;50.792;4.352;2023-01-19T11:47:47;13.60;53.40
22469;DHT22;11401;50.792;4.352;2023-01-19T11:50:28;13.60;53.50
22469;DHT22;11401;50.792;4.352;2023-01-19T11:53:15;13.80;52.80
22469;DHT22;11401;50.792;4.352;2023-01-19T11:58:17;13.80;53.00
22469;DHT22;11401;50.792;4.352;2023-01-19T12:00:52;13.70;52.20
22469;DHT22;11401;50.792;4.352;2023-01-19T12:03:27;13.50;52.80
22469;DHT22;11401;50.792;4.352;2023-01-19T12:06:04;13.60;53.10
22469;DHT22;11401;50.792;4.352;2023-01-19T12:08:40;13.60;53.80
22469;DHT22;11401;50.792;4.352;2023-01-19T12:11:11;13.80;53.50
22469;DHT22;11401;50.792;4.352;2023-01-19T12:13:40;13.80;53.00
22469;DHT22;11401;50.792;4.352;2023-01-19T12:16:18;13.80;52.40
22469;DHT22;11401;50.792;4.352;2023-01-19T12:19:17;13.70;52.60
22469;DHT22;11401;50.792;4.352;2023-01-19T12:21:44;13.80;53.20
22469;DHT22;11401;50.792;4.352;2023-01-19T12:24:20;13.70;52.50
22469;DHT22;11401;50.792;4.352;2023-01-19T12:27:36;13.70;53.00
22469;DHT22;11401;50.792;4.352;2023-01-19T12:29:44;13.80;53.30
22469;DHT22;11401;50.792;4.352;2023-01-19T12:34:46;13.90;53.50
22469;DHT22;11401;50.792;4.352;2023-01-19T12:42:32;13.90;52.80
22469;DHT22;11401;50.792;4.352;2023-01-19T12:45:07;13.90;52.50
22469;DHT22;11401;50.792;4.352;2023-01-19T12:47:39;14.10;53.50
22469;DHT22;11401;50.792;4.352;2023-01-19T12:50:20;14.00;52.50
22469;DHT22;11401;50.792;4.352;2023-01-19T12:52:52;14.00;52.20
22469;DHT22;11401;50.792;4.352;2023-01-19T12:55:30;14.00;52.30
22469;DHT22;11401;50.792;4.352;2023-01-19T12:58:16;14.00;52.60
22469;DHT22;11401;50.792;4.352;2023-01-19T13:00:49;14.00;52.30
22469;DHT22;11401;50.792;4.352;2023-01-19T13:05:47;14.00;53.00
22469;DHT22;11401;50.792;4.352;2023-01-19T13:08:16;14.00;52.60
22469;DHT22;11401;50.792;4.352;2023-01-19T13:21:35;14.10;52.10
22469;DHT22;11401;50.792;4.352;2023-01-19T13:24:18;14.10;52.30
22469;DHT22;11401;50.792;4.352;2023-01-19T13:29:34;14.20;52.10
22469;DHT22;11401;50.792;4.352;2023-01-19T13:32:14;14.10;52.40
22469;DHT22;11401;50.792;4.352;2023-01-19T13:35:00;14.10;52.10
22469;DHT22;11401;50.792;4.352;2023-01-19T13:37:34;14.20;52.80
22469;DHT22;11401;50.792;4.352;2023-01-19T13:40:03;14.30;52.40
22469;DHT22;11401;50.792;4.352;2023-01-19T13:42:37;14.30;52.20
22469;DHT22;11401;50.792;4.352;2023-01-19T13:45:32;14.20;52.10
22469;DHT22;11401;50.792;4.352;2023-01-19T13:48:03;14.10;52.10
22469;DHT22;11401;50.792;4.352;2023-01-19T13:50:33;14.10;52.50
22469;DHT22;11401;50.792;4.352;2023-01-19T13:53:01;14.20;53.10
22469;DHT22;11401;50.792;4.352;2023-01-19T13:55:30;14.30;53.00
22469;DHT22;11401;50.792;4.352;2023-01-19T13:57:57;14.30;52.20
22469;DHT22;11401;50.792;4.352;2023-01-19T14:00:28;14.50;52.60
22469;DHT22;11401;50.792;4.352;2023-01-19T14:03:07;14.60;52.50
22469;DHT22;11401;50.792;4.352;2023-01-19T14:05:41;14.40;51.40
22469;DHT22;11401;50.792;4.352;2023-01-19T14:13:18;14.10;52.00
22469;DHT22;11401;50.792;4.352;2023-01-19T14:15:49;14.00;52.00
22469;DHT22;11401;50.792;4.352;2023-01-19T14:20:53;14.10;52.70
22469;DHT22;11401;50.792;4.352;2023-01-19T14:31:46;14.10;51.80
22469;DHT22;11401;50.792;4.352;2023-01-19T14:37:14;14.00;52.60
22469;DHT22;11401;50.792;4.352;2023-01-19T14:39:53;14.00;52.20
22469;DHT22;11401;50.792;4.352;2023-01-19T14:42:27;14.00;52.50
22469;DHT22;11401;50.792;4.352;2023-01-19T14:44:56;14.00;52.50
22469;DHT22;11401;50.792;4.352;2023-01-19T14:47:37;14.00;53.10
22469;DHT22;11401;50.792;4.352;2023-01-19T14:50:16;14.10;52.40
22469;DHT22;11401;50.792;4.352;2023-01-19T14:52:56;14.20;52.60
22469;DHT22;11401;50.792;4.352;2023-01-19T14:55:32;14.20;52.10
22469;DHT22;11401;50.792;4.352;2023-01-19T14:58:00;14.20;52.20
22469;DHT22;11401;50.792;4.352;2023-01-19T15:00:28;14.00;52.10
22469;DHT22;11401;50.792;4.352;2023-01-19T15:02:55;14.00;52.20
22469;DHT22;11401;50.792;4.352;2023-01-19T15:05:22;14.00;52.60
22469;DHT22;11401;50.792;4.352;2023-01-19T15:07:49;14.00;52.50
22469;DHT22;11401;50.792;4.352;2023-01-19T15:10:22;14.00;52.40
22469;DHT22;11401;50.792;4.352;2023-01-19T15:12:50;14.00;52.60
22469;DHT22;11401;50.792;4.352;2023-01-19T15:15:30;14.00;52.90
22469;DHT22;11401;50.792;4.352;2023-01-19T15:17:59;14.00;52.60
22469;DHT22;11401;50.792;4.352;2023-01-19T15:20:27;13.90;52.40
22469;DHT22;11401;50.792;4.352;2023-01-19T15:22:54;13.90;53.50
22469;DHT22;11401;50.792;4.352;2023-01-19T15:25:22;13.70;53.30
22469;DHT22;11401;50.792;4.352;2023-01-19T15:27:52;13.60;53.60
22469;DHT22;11401;50.792;4.352;2023-01-19T15:30:25;13.60;53.70
22469;DHT22;11401;50.792;4.352;2023-01-19T15:33:19;13.60;53.60
22469;DHT22;11401;50.792;4.352;2023-01-19T15:35:47;13.70;53.70
22469;DHT22;11401;50.792;4.352;2023-01-19T15:38:14;13.70;53.30
22469;DHT22;11401;50.792;4.352;2023-01-19T15:40:41;13.70;53.70
22469;DHT22;11401;50.792;4.352;2023-01-19T15:43:10;13.70;53.30
22469;DHT22;11401;50.792;4.352;2023-01-19T15:45:42;13.90;53.40
22469;DHT22;11401;50.792;4.352;2023-01-19T15:48:10;13.80;53.20
22469;DHT22;11401;50.792;4.352;2023-01-19T15:50:42;13.90;52.60
22469;DHT22;11401;50.792;4.352;2023-01-19T15:53:14;13.80;52.60
22469;DHT22;11401;50.792;4.352;2023-01-19T15:55:42;13.80;53.00
22469;DHT22;11401;50.792;4.352;2023-01-19T15:58:10;13.70;52.60
22469;DHT22;11401;50.792;4.352;2023-01-19T16:00:40;13.60;53.50
22469;DHT22;11401;50.792;4.352;2023-01-19T16:03:08;13.60;52.50
22469;DHT22;11401;50.792;4.352;2023-01-19T16:05:36;13.50;52.80
22469;DHT22;11401;50.792;4.352;2023-01-19T16:08:10;13.30;53.20
22469;DHT22;11401;50.792;4.352;2023-01-19T16:10:41;13.10;53.30
22469;DHT22;11401;50.792;4.352;2023-01-19T16:13:10;13.00;53.90
22469;DHT22;11401;50.792;4.352;2023-01-19T16:15:38;12.90;54.20
22469;DHT22;11401;50.792;4.352;2023-01-19T16:18:05;12.80;54.60
22469;DHT22;11401;50.792;4.352;2023-01-19T16:20:33;12.70;54.60
22469;DHT22;11401;50.792;4.352;2023-01-19T16:23:00;12.80;54.80
22469;DHT22;11401;50.792;4.352;2023-01-19T16:25:42;12.70;54.70
22469;DHT22;11401;50.792;4.352;2023-01-19T16:28:10;12.60;54.70
22469;DHT22;11401;50.792;4.352;2023-01-19T16:30:37;12.60;55.40
22469;DHT22;11401;50.792;4.352;2023-01-19T16:33:04;12.60;55.30
22469;DHT22;11401;50.792;4.352;2023-01-19T16:35:31;12.50;55.40
22469;DHT22;11401;50.792;4.352;2023-01-19T16:37:58;12.40;55.70
22469;DHT22;11401;50.792;4.352;2023-01-19T16:40:25;12.20;54.30
22469;DHT22;11401;50.792;4.352;2023-01-19T16:42:52;11.90;54.80
22469;DHT22;11401;50.792;4.352;2023-01-19T16:45:19;11.60;55.30
22469;DHT22;11401;50.792;4.352;2023-01-19T16:47:46;11.30;56.20
22469;DHT22;11401;50.792;4.352;2023-01-19T16:50:16;11.00;57.40
22469;DHT22;11401;50.792;4.352;2023-01-19T16:52:43;10.90;58.30
22469;DHT22;11401;50.792;4.352;2023-01-19T16:55:10;10.90;58.40
22469;DHT22;11401;50.792;4.352;2023-01-19T16:57:37;10.90;58.70
22469;DHT22;11401;50.792;4.352;2023-01-19T17:00:06;11.00;58.80
22469;DHT22;11401;50.792;4.352;2023-01-19T17:02:35;10.90;57.40
22469;DHT22;11401;50.792;4.352;2023-01-19T17:05:02;10.70;58.00
22469;DHT22;11401;50.792;4.352;2023-01-19T17:07:30;10.60;58.80
22469;DHT22;11401;50.792;4.352;2023-01-19T17:09:57;10.60;59.10
22469;DHT22;11401;50.792;4.352;2023-01-19T17:12:24;10.60;59.30
22469;DHT22;11401;50.792;4.352;2023-01-19T17:14:51;10.70;59.20
22469;DHT22;11401;50.792;4.352;2023-01-19T17:17:17;10.70;58.90
22469;DHT22;11401;50.792;4.352;2023-01-19T17:19:44;10.80;59.30
22469;DHT22;11401;50.792;4.352;2023-01-19T17:22:11;10.90;59.10
22469;DHT22;11401;50.792;4.352;2023-01-19T17:24:39;11.00;59.10
22469;DHT22;11401;50.792;4.352;2023-01-19T17:27:08;11.10;59.00